Time;durP1;ratioP1;P1;durP2;ratioP2;P2;SDS_P1;SDS_P2;PMS_P1;PMS_P2;Temp;Humidity;BMP_temperature;BMP_pressure;BME280_temperature;BME280_humidity;BME280_pressure;Samples;Min_cycle;Max_cycle;Signal;HPM_P1;HPM_P2
2022/10/02 00:02:31;;;;;;;;;1.67;0.67;;;;;13.61;76.94;101279.91;5039334;28;9062;-63
2022/10/02 00:05:04;;;;;;;;;0.00;0.00;;;;;13.60;76.74;101283.66;5030831;28;9136;-65
2022/10/02 00:07:36;;;;;;;;;0.00;0.00;;;;;13.59;76.67;101287.41;5046032;28;9050;-65
2022/10/02 00:10:13;;;;;;;;;0.00;0.00;;;;;13.55;76.74;101302.38;5043128;28;9252;-65
2022/10/02 00:12:40;;;;;;;;;0.00;0.00;;;;;13.51;76.73;101309.25;5050036;28;9086;-64
2022/10/02 00:15:14;;;;;;;;;0.00;0.00;;;;;13.48;76.75;101304.22;5041652;28;9237;-63
2022/10/02 00:17:45;;;;;;;;;1.00;1.00;;;;;13.47;76.81;101302.56;5037397;28;9146;-61
2022/10/02 00:20:14;;;;;;;;;0.00;0.00;;;;;13.47;76.82;101299.88;5050359;28;9229;-65
2022/10/02 00:22:56;;;;;;;;;1.00;1.00;;;;;13.45;76.59;101302.78;5049547;28;9154;-64
2022/10/02 00:25:30;;;;;;;;;0.00;0.00;;;;;13.43;76.57;101310.25;5055566;28;9229;-66
2022/10/02 00:28:06;;;;;;;;;0.00;0.00;;;;;13.41;76.46;101303.34;5058185;28;9206;-65
2022/10/02 00:30:42;;;;;;;;;0.67;0.67;;;;;13.41;76.78;101306.06;5050081;28;9984;-64
2022/10/02 00:33:41;;;;;;;;;0.00;0.00;;;;;13.41;76.59;101312.34;5050147;28;9050;-66
2022/10/02 00:36:23;;;;;;;;;0.00;0.00;;;;;13.38;76.50;101307.31;5045843;28;9257;-67
2022/10/02 00:39:02;;;;;;;;;0.00;0.00;;;;;13.40;76.72;101315.22;5057015;28;9224;-65
2022/10/02 00:41:45;;;;;;;;;0.00;0.00;;;;;13.40;76.85;101313.34;5045808;28;9306;-65
2022/10/02 00:44:38;;;;;;;;;0.33;0.00;;;;;13.38;76.84;101317.31;5030138;28;10059;-64
2022/10/02 00:47:39;;;;;;;;;1.00;1.00;;;;;13.38;76.62;101317.31;5034379;28;9251;-67
2022/10/02 00:50:17;;;;;;;;;1.00;1.00;;;;;13.36;77.02;101326.44;5050168;28;9312;-64
2022/10/02 00:52:58;;;;;;;;;0.00;0.00;;;;;13.36;77.06;101318.31;5048335;28;9290;-63
2022/10/02 00:55:33;;;;;;;;;7.00;1.00;;;;;13.37;76.94;101321.88;5064801;28;9083;-63
2022/10/02 00:58:41;;;;;;;;;0.00;0.00;;;;;13.39;77.07;101321.66;5057258;28;9232;-63
2022/10/02 01:01:17;;;;;;;;;2.67;0.00;;;;;13.38;76.93;101328.13;5047115;28;9070;-64
2022/10/02 01:03:52;;;;;;;;;0.67;0.67;;;;;13.34;77.25;101327.69;5048463;28;9224;-63
2022/10/02 01:06:23;;;;;;;;;2.00;0.00;;;;;13.34;77.49;101322.28;5053085;28;9337;-66
2022/10/02 01:08:50;;;;;;;;;0.00;0.00;;;;;13.34;77.50;101317.69;5050500;28;9978;-62
2022/10/02 01:11:19;;;;;;;;;0.00;0.00;;;;;13.38;77.28;101317.31;5048718;28;9162;-61
2022/10/02 01:13:47;;;;;;;;;0.33;0.00;;;;;13.39;77.53;101324.38;5049376;28;9147;-64
2022/10/02 01:16:13;;;;;;;;;1.67;0.67;;;;;13.40;77.20;101320.63;5049787;28;9132;-62
2022/10/02 01:18:41;;;;;;;;;1.00;1.00;;;;;13.38;77.12;101317.31;5044808;28;9227;-64
2022/10/02 01:21:15;;;;;;;;;1.00;1.00;;;;;13.36;76.95;101315.63;5057170;28;9055;-63
2022/10/02 01:23:59;;;;;;;;;1.00;1.00;;;;;13.33;77.18;101316.03;5050289;28;9305;-64
2022/10/02 01:26:25;;;;;;;;;1.00;1.00;;;;;13.32;77.07;101317.03;5030071;28;9202;-64
2022/10/02 01:28:52;;;;;;;;;1.33;1.00;;;;;13.33;77.26;101326.84;5049058;28;9288;-65
2022/10/02 01:31:18;;;;;;;;;0.00;0.00;;;;;13.34;77.37;101322.28;5052744;28;9995;-65
2022/10/02 01:33:48;;;;;;;;;1.00;0.00;;;;;13.36;77.43;101321.03;5047619;28;9224;-62
2022/10/02 01:36:16;;;;;;;;;2.00;0.00;;;;;13.38;77.46;101322.72;5061602;28;9164;-64
2022/10/02 01:38:46;;;;;;;;;0.67;0.67;;;;;13.38;77.39;101320.00;5050131;28;9264;-67
2022/10/02 01:41:12;;;;;;;;;0.67;0.00;;;;;13.37;77.24;101327.28;5053292;28;9154;-63
2022/10/02 01:43:54;;;;;;;;;0.33;0.00;;;;;13.38;77.12;101341.63;5052943;28;9076;-68
2022/10/02 01:46:33;;;;;;;;;1.33;1.33;;;;;13.38;77.20;101333.53;5049111;28;8997;-65
2022/10/02 01:49:22;;;;;;;;;0.00;0.00;;;;;13.35;77.06;101337.47;5057732;28;9851;-67
2022/10/02 01:52:08;;;;;;;;;0.00;0.00;;;;;13.36;77.06;101331.00;5061897;28;9166;-63
2022/10/02 01:55:06;;;;;;;;;0.00;0.00;;;;;13.34;77.25;101341.22;5050375;28;9259;-65
2022/10/02 01:57:53;;;;;;;;;0.00;0.00;;;;;13.35;77.38;101346.41;5018883;28;9259;-65
2022/10/02 02:00:23;;;;;;;;;1.00;1.00;;;;;13.33;77.37;101348.47;5053017;28;9330;-63
2022/10/02 02:02:52;;;;;;;;;0.33;0.33;;;;;13.33;77.36;101342.25;5046172;28;9996;-63
2022/10/02 02:05:43;;;;;;;;;1.00;1.00;;;;;13.33;77.48;101344.94;5058840;28;9144;-61
2022/10/02 02:08:21;;;;;;;;;1.00;1.00;;;;;13.31;77.31;101345.13;5047691;28;9179;-64
2022/10/02 02:11:07;;;;;;;;;2.00;1.00;;;;;13.31;77.28;101339.72;5061734;28;9162;-64
2022/10/02 02:13:45;;;;;;;;;0.33;0.33;;;;;13.30;77.37;101343.47;5055372;28;9239;-63
2022/10/02 02:16:24;;;;;;;;;0.00;0.00;;;;;13.29;77.42;101336.41;5052097;28;9153;-64
2022/10/02 02:19:02;;;;;;;;;1.00;0.00;;;;;13.29;77.32;101335.56;5057768;28;9231;-62
2022/10/02 02:21:40;;;;;;;;;1.67;1.33;;;;;13.27;77.46;101341.16;5052328;28;9057;-64
2022/10/02 02:24:13;;;;;;;;;2.00;2.00;;;;;13.27;77.63;101338.44;5037069;28;9232;-64
2022/10/02 02:26:42;;;;;;;;;0.67;0.67;;;;;13.26;77.46;101352.19;5032704;28;10116;-63
2022/10/02 02:29:11;;;;;;;;;2.67;1.00;;;;;13.25;77.59;101348.66;5060786;28;9398;-65
2022/10/02 02:31:46;;;;;;;;;3.00;2.00;;;;;13.22;77.55;101350.88;5051106;28;9227;-66
2022/10/02 02:34:19;;;;;;;;;1.67;0.67;;;;;13.20;77.56;101345.66;5053932;28;10200;-64
2022/10/02 02:36:50;;;;;;;;;2.33;2.00;;;;;13.21;77.50;101354.63;5051968;28;9212;-64
2022/10/02 02:39:28;;;;;;;;;3.00;2.00;;;;;13.19;77.78;101348.56;5051694;28;9323;-64
2022/10/02 02:42:01;;;;;;;;;2.00;1.00;;;;;13.18;77.43;101352.31;5049613;28;9251;-64
2022/10/02 02:45:02;;;;;;;;;2.00;2.00;;;;;13.16;77.63;101352.50;5052356;28;9368;-63
2022/10/02 02:47:39;;;;;;;;;2.00;1.67;;;;;13.16;77.55;101355.19;5058993;28;9227;-65
2022/10/02 02:50:30;;;;;;;;;0.00;0.00;;;;;13.14;77.46;101354.56;5032189;28;9232;-65
2022/10/02 02:53:03;;;;;;;;;1.33;0.33;;;;;13.13;77.70;101358.31;5043785;28;9289;-66
2022/10/02 02:55:31;;;;;;;;;1.00;1.00;;;;;13.14;77.57;101359.16;5050777;28;9247;-61
2022/10/02 02:58:11;;;;;;;;;1.33;1.00;;;;;13.13;77.82;101363.72;5059546;28;9384;-63
2022/10/02 03:00:38;;;;;;;;;0.00;0.00;;;;;13.11;77.50;101361.19;5042823;28;9338;-65
2022/10/02 03:03:04;;;;;;;;;2.00;1.00;;;;;13.10;77.55;101361.41;5044569;28;9346;-64
2022/10/02 03:05:34;;;;;;;;;1.00;0.00;;;;;13.07;77.64;101361.78;5051986;28;9242;-64
2022/10/02 03:08:03;;;;;;;;;2.00;2.00;;;;;13.03;77.47;101364.06;5051277;28;9291;-62
2022/10/02 03:10:43;;;;;;;;;2.00;1.00;;;;;13.01;77.63;101366.13;5058281;28;9293;-63
2022/10/02 03:13:20;;;;;;;;;1.00;1.00;;;;;12.99;77.70;101359.25;5045218;28;9918;-65
2022/10/02 03:15:54;;;;;;;;;1.00;0.00;;;;;12.97;77.88;101364.88;5032463;28;9290;-63
2022/10/02 03:18:53;;;;;;;;;3.67;1.00;;;;;12.95;77.63;101366.91;5046447;28;9215;-61
2022/10/02 03:21:33;;;;;;;;;0.00;0.00;;;;;12.91;77.80;101365.63;5051752;28;9237;-65
2022/10/02 03:24:15;;;;;;;;;2.00;1.00;;;;;12.89;77.84;101367.72;5048865;28;9841;-64
2022/10/02 03:26:49;;;;;;;;;1.00;1.00;;;;;12.86;77.68;101368.94;5058839;28;9239;-66
2022/10/02 03:29:24;;;;;;;;;0.33;0.33;;;;;12.85;77.73;101371.84;5031392;28;9236;-65
2022/10/02 03:31:52;;;;;;;;;1.00;1.00;;;;;12.82;77.69;101367.66;5033786;28;9091;-65
2022/10/02 03:34:19;;;;;;;;;1.33;1.33;;;;;12.81;77.77;101379.50;5051494;28;9314;-64
2022/10/02 03:36:46;;;;;;;;;3.00;1.00;;;;;12.78;77.86;101379.88;5050783;28;9244;-63
2022/10/02 03:39:13;;;;;;;;;1.00;0.67;;;;;12.78;77.89;101373.66;5046399;28;9294;-62
2022/10/02 03:41:55;;;;;;;;;1.00;1.00;;;;;12.77;77.81;101374.69;5059719;28;9273;-62
2022/10/02 03:44:22;;;;;;;;;1.00;1.00;;;;;12.74;77.92;101386.72;5051072;28;10025;-64
2022/10/02 03:46:49;;;;;;;;;0.00;0.00;;;;;12.77;78.05;101386.31;5050622;28;9289;-62
2022/10/02 03:49:15;;;;;;;;;2.00;0.00;;;;;12.78;77.98;101379.06;5046398;28;9221;-63
2022/10/02 03:51:41;;;;;;;;;0.67;0.00;;;;;12.79;78.08;101386.13;5032891;28;9471;-63
2022/10/02 03:54:15;;;;;;;;;0.00;0.00;;;;;12.79;77.97;101386.13;5056092;28;9281;-65
2022/10/02 03:56:57;;;;;;;;;1.00;0.25;;;;;12.80;78.24;101385.09;5064122;28;10063;-63
2022/10/02 03:59:41;;;;;;;;;1.00;1.00;;;;;12.80;78.02;101385.94;5030897;28;9472;-65
2022/10/02 04:02:18;;;;;;;;;1.00;1.00;;;;;12.80;78.04;101394.03;5036048;28;9404;-63
2022/10/02 04:05:01;;;;;;;;;0.00;0.00;;;;;12.78;78.03;101387.16;5051032;28;9237;-65
2022/10/02 04:07:35;;;;;;;;;1.00;1.00;;;;;12.76;77.83;101394.59;5047142;28;9217;-64
2022/10/02 04:10:17;;;;;;;;;1.00;0.00;;;;;12.74;77.87;101402.91;5058922;28;9285;-64
2022/10/02 04:12:49;;;;;;;;;1.00;1.00;;;;;12.72;77.76;101405.00;5050595;28;9959;-61
2022/10/02 04:15:23;;;;;;;;;1.00;1.00;;;;;12.71;78.19;101406.00;5050683;28;9289;-63
2022/10/02 04:18:05;;;;;;;;;0.00;0.00;;;;;12.71;77.98;101403.28;5050242;28;9213;-63
2022/10/02 04:20:42;;;;;;;;;2.00;1.33;;;;;12.71;78.05;101397.91;5050225;28;9225;-63
2022/10/02 04:23:19;;;;;;;;;0.00;0.00;;;;;12.74;78.25;101407.50;5052490;28;9297;-62
2022/10/02 04:25:54;;;;;;;;;0.00;0.00;;;;;12.76;78.17;101400.00;5062156;28;9372;-64
2022/10/02 04:28:27;;;;;;;;;1.50;1.00;;;;;12.77;78.05;101405.25;5054705;28;10058;-65
2022/10/02 04:30:54;;;;;;;;;2.00;1.00;;;;;12.79;78.28;101400.47;5050137;28;9514;-65
2022/10/02 04:33:23;;;;;;;;;1.00;1.00;;;;;12.82;78.37;101404.66;5050147;28;9370;-64
2022/10/02 04:36:23;;;;;;;;;1.25;1.00;;;;;12.83;78.31;101401.75;5050480;28;9329;-68
2022/10/02 04:39:08;;;;;;;;;1.00;1.00;;;;;12.84;78.58;101422.34;5050060;28;9484;-64
2022/10/02 04:42:02;;;;;;;;;0.33;0.33;;;;;12.86;78.57;101420.25;5049907;28;9371;-65
2022/10/02 04:45:13;;;;;;;;;0.00;0.00;;;;;12.90;78.74;101417.19;5030605;28;9366;-64
2022/10/02 04:48:04;;;;;;;;;0.33;0.00;;;;;12.94;78.90;101423.88;5018232;28;9356;-65
2022/10/02 04:51:03;;;;;;;;;0.00;0.00;;;;;12.98;79.09;101435.97;5066008;28;9158;-63
2022/10/02 04:53:44;;;;;;;;;0.00;0.00;;;;;13.01;78.74;101438.28;5047014;28;9295;-64
2022/10/02 04:56:19;;;;;;;;;1.00;1.00;;;;;13.01;78.74;101432.88;5070120;28;9251;-65
2022/10/02 04:59:00;;;;;;;;;0.33;0.33;;;;;13.01;78.79;101425.59;5047119;28;9046;-63
2022/10/02 05:01:54;;;;;;;;;1.00;1.00;;;;;13.02;79.00;101427.25;5032580;28;9231;-66
2022/10/02 05:04:58;;;;;;;;;1.00;1.00;;;;;13.02;78.95;101427.25;5032555;28;9254;-64
2022/10/02 05:07:40;;;;;;;;;0.00;0.00;;;;;13.01;78.95;101430.16;5055921;28;9164;-64
2022/10/02 05:10:06;;;;;;;;;1.00;1.00;;;;;12.99;79.07;101424.94;5033925;28;9979;-64
2022/10/02 05:13:02;;;;;;;;;1.00;1.00;;;;;12.98;78.89;101439.50;5041978;28;9308;-65
2022/10/02 05:15:44;;;;;;;;;1.00;0.00;;;;;12.96;78.76;101444.25;5056897;28;10327;-63
2022/10/02 05:18:34;;;;;;;;;1.33;0.33;;;;;12.93;79.09;101444.66;5053693;28;9076;-64
2022/10/02 05:21:42;;;;;;;;;1.67;1.33;;;;;12.93;78.84;101447.34;5056051;28;9386;-64
2022/10/02 05:24:41;;;;;;;;;2.33;0.33;;;;;12.90;78.96;101452.31;5058661;28;9369;-66
2022/10/02 05:27:34;;;;;;;;;0.00;0.00;;;;;12.89;79.27;101448.78;5067995;28;9380;-64
2022/10/02 05:30:06;;;;;;;;;0.00;0.00;;;;;12.90;79.33;101452.31;5061963;28;10014;-65
2022/10/02 05:32:58;;;;;;;;;1.00;1.00;;;;;12.89;79.16;101453.34;5053466;28;9283;-65
2022/10/02 05:35:31;;;;;;;;;0.00;0.00;;;;;12.89;79.06;101458.75;5053180;28;9371;-66
2022/10/02 05:38:43;;;;;;;;;0.00;0.00;;;;;12.88;79.33;101460.59;5057335;28;9303;-66
2022/10/02 05:41:21;;;;;;;;;1.00;0.00;;;;;12.88;79.11;101460.59;5053142;28;9391;-65
2022/10/02 05:44:18;;;;;;;;;1.00;0.00;;;;;12.86;79.08;101460.78;5050994;28;9389;-65
2022/10/02 05:47:21;;;;;;;;;1.00;1.00;;;;;12.85;79.09;101467.25;5035082;28;10399;-64
2022/10/02 05:49:57;;;;;;;;;0.00;0.00;;;;;12.86;79.15;101466.19;5051700;28;9442;-64
2022/10/02 05:52:58;;;;;;;;;0.33;0.33;;;;;12.85;79.20;101469.09;5059131;28;9381;-64
2022/10/02 05:55:48;;;;;;;;;0.00;0.00;;;;;12.87;79.21;101467.88;5032970;28;9282;-64
2022/10/02 05:58:35;;;;;;;;;0.50;0.00;;;;;12.89;79.24;101472.25;5051077;28;10075;-63
2022/10/02 06:01:24;;;;;;;;;0.67;0.67;;;;;12.89;79.22;101475.78;5032887;28;9464;-64
2022/10/02 06:04:02;;;;;;;;;0.33;0.33;;;;;12.91;79.28;101481.81;5051947;28;9232;-66
2022/10/02 06:06:35;;;;;;;;;1.00;1.00;;;;;12.94;79.36;101480.63;5054725;28;9239;-63
2022/10/02 06:09:07;;;;;;;;;1.00;0.00;;;;;12.95;79.28;101480.41;5056050;28;9362;-65
2022/10/02 06:11:46;;;;;;;;;0.00;0.00;;;;;12.96;79.30;101475.84;5052625;28;9242;-64
2022/10/02 06:14:26;;;;;;;;;2.00;1.00;;;;;12.97;79.20;101483.78;5032828;28;9323;-65
2022/10/02 06:17:14;;;;;;;;;2.00;1.00;;;;;12.96;78.97;101490.19;5034650;28;9375;-64
2022/10/02 06:19:53;;;;;;;;;0.00;0.00;;;;;12.97;79.07;101491.03;5052000;28;9373;-65
2022/10/02 06:22:27;;;;;;;;;0.00;0.00;;;;;12.99;79.16;101502.47;5054344;28;9375;-65
2022/10/02 06:24:57;;;;;;;;;1.00;1.00;;;;;12.99;79.08;101500.59;5052491;28;9378;-64
2022/10/02 06:27:37;;;;;;;;;0.00;0.00;;;;;13.00;78.91;101504.97;5047206;28;9323;-64
2022/10/02 06:30:16;;;;;;;;;0.00;0.00;;;;;13.01;79.06;101503.97;5055939;28;9366;-64
2022/10/02 06:32:52;;;;;;;;;0.00;0.00;;;;;13.04;79.20;101510.84;5051618;28;9356;-64
2022/10/02 06:35:34;;;;;;;;;1.00;1.00;;;;;13.07;79.13;101523.97;5057306;28;9364;-64
2022/10/02 06:38:25;;;;;;;;;2.00;0.00;;;;;13.09;79.29;101528.16;5048554;28;9428;-66
2022/10/02 06:41:13;;;;;;;;;1.00;0.00;;;;;13.13;79.18;101536.72;5062290;28;9439;-64
2022/10/02 06:43:49;;;;;;;;;0.00;0.00;;;;;13.16;79.12;101541.72;5059118;28;9463;-64
2022/10/02 06:46:52;;;;;;;;;1.00;1.00;;;;;13.20;79.13;101544.88;5072127;28;9353;-65
2022/10/02 06:49:42;;;;;;;;;0.00;0.00;;;;;13.24;79.08;101554.31;5006308;28;9381;-65
2022/10/02 06:52:36;;;;;;;;;2.00;1.00;;;;;13.28;78.97;101558.28;5046005;28;9250;-66
2022/10/02 06:55:26;;;;;;;;;2.00;0.00;;;;;13.29;79.27;101543.75;5051332;28;9233;-65
2022/10/02 06:58:25;;;;;;;;;1.33;1.33;;;;;13.30;79.09;101548.97;5051229;28;9392;-66
2022/10/02 07:01:03;;;;;;;;;1.00;1.00;;;;;13.33;79.02;101547.75;5051349;28;9375;-64
2022/10/02 07:03:54;;;;;;;;;1.00;1.00;;;;;13.34;78.99;101552.94;5050150;28;9193;-63
2022/10/02 07:06:44;;;;;;;;;1.00;1.00;;;;;13.35;79.06;101545.66;5059653;28;9305;-69
2022/10/02 07:09:35;;;;;;;;;2.00;0.67;;;;;13.39;79.17;101556.94;5031664;28;9388;-64
2022/10/02 07:12:24;;;;;;;;;1.00;1.00;;;;;13.41;79.20;101561.13;5036299;28;9223;-65
2022/10/02 07:15:05;;;;;;;;;1.00;1.00;;;;;13.44;79.29;101563.41;5044813;28;9336;-65
2022/10/02 07:18:03;;;;;;;;;1.00;0.00;;;;;13.47;79.25;101562.19;5054866;28;9271;-66
2022/10/02 07:20:54;;;;;;;;;0.00;0.00;;;;;13.49;78.95;101568.25;5048850;28;9980;-64
2022/10/02 07:23:44;;;;;;;;;0.00;0.00;;;;;13.51;78.96;101577.00;5056942;28;9807;-63
2022/10/02 07:26:34;;;;;;;;;0.00;0.00;;;;;13.55;78.92;101568.31;5031555;28;9226;-64
2022/10/02 07:29:32;;;;;;;;;1.00;1.00;;;;;13.59;78.75;101579.56;5047034;28;9147;-64
2022/10/02 07:32:17;;;;;;;;;0.67;0.00;;;;;13.60;78.81;101581.25;5046714;28;9181;-64
2022/10/02 07:35:22;;;;;;;;;0.00;0.00;;;;;13.63;79.10;101569.19;5058891;28;9151;-63
2022/10/02 07:38:01;;;;;;;;;1.00;1.00;;;;;13.65;79.00;101577.94;5006684;28;9153;-64
2022/10/02 07:40:45;;;;;;;;;1.00;1.00;;;;;13.67;79.21;101582.13;5049230;28;9229;-64
2022/10/02 07:43:26;;;;;;;;;1.00;1.00;;;;;13.67;79.08;101587.53;5044925;28;9362;-65
2022/10/02 07:46:16;;;;;;;;;1.33;1.33;;;;;13.68;79.09;101589.22;5051279;28;9224;-65
2022/10/02 07:49:03;;;;;;;;;1.33;1.00;;;;;13.71;78.87;101588.81;5047612;28;9283;-65
2022/10/02 07:51:48;;;;;;;;;2.00;2.00;;;;;13.74;79.03;101593.00;5050678;28;9273;-63
2022/10/02 07:54:54;;;;;;;;;1.00;1.00;;;;;13.74;78.88;101593.84;5031242;28;9297;-68
2022/10/02 07:57:34;;;;;;;;;1.00;1.00;;;;;13.76;79.40;101597.19;5037497;28;9992;-66
2022/10/02 08:00:06;;;;;;;;;2.67;1.00;;;;;13.77;79.37;101598.00;5050773;28;9155;-66
2022/10/02 08:02:47;;;;;;;;;0.67;0.67;;;;;13.75;79.31;101606.34;5041158;28;10095;-65
2022/10/02 08:05:18;;;;;;;;;4.67;4.00;;;;;13.78;79.24;101614.06;5052423;28;9319;-66
2022/10/02 08:07:49;;;;;;;;;2.00;1.00;;;;;13.83;78.95;101608.91;5050718;28;9217;-65
2022/10/02 08:10:20;;;;;;;;;1.33;0.00;;;;;13.89;79.07;101612.66;5050885;28;9076;-66
2022/10/02 08:12:57;;;;;;;;;1.67;0.67;;;;;13.94;79.04;101612.09;5050584;28;9169;-66
2022/10/02 08:15:24;;;;;;;;;0.00;0.00;;;;;13.98;79.09;101616.09;5045444;28;9222;-66
2022/10/02 08:18:03;;;;;;;;;2.00;1.00;;;;;14.03;78.87;101616.31;5040223;28;9135;-67
2022/10/02 08:20:50;;;;;;;;;2.00;1.00;;;;;14.07;78.64;101617.59;5039931;28;9193;-66
2022/10/02 08:23:24;;;;;;;;;1.67;1.00;;;;;14.10;78.54;101630.75;5038494;28;9166;-67
2022/10/02 08:26:14;;;;;;;;;1.00;1.00;;;;;14.14;78.73;101633.88;5040122;28;9220;-67
2022/10/02 08:28:59;;;;;;;;;2.00;2.00;;;;;14.17;78.68;101641.59;5035088;28;9162;-67
2022/10/02 08:31:25;;;;;;;;;0.33;0.33;;;;;14.17;78.54;101641.59;5048307;28;9151;-67
2022/10/02 08:33:51;;;;;;;;;2.00;0.00;;;;;14.18;78.77;101644.13;5053085;28;9280;-66
2022/10/02 08:36:27;;;;;;;;;1.33;0.00;;;;;14.16;78.28;101646.19;5055798;28;8927;-65
2022/10/02 08:38:54;;;;;;;;;2.00;1.00;;;;;14.15;78.28;101646.41;5054404;28;9047;-65
2022/10/02 08:41:54;;;;;;;;;2.00;2.00;;;;;14.18;78.37;101665.78;5064166;28;9194;-66
2022/10/02 08:45:05;;;;;;;;;0.67;0.33;;;;;14.24;78.53;101670.41;5030274;28;9065;-67
2022/10/02 08:48:22;;;;;;;;;2.00;2.00;;;;;14.30;78.00;101666.91;5035307;28;9079;-66
2022/10/02 08:51:19;;;;;;;;;2.00;2.00;;;;;14.31;77.73;101670.47;5044000;28;9154;-67
2022/10/02 08:54:08;;;;;;;;;1.00;1.00;;;;;14.32;77.91;101672.94;5056343;28;9219;-68
2022/10/02 08:57:11;;;;;;;;;3.00;1.00;;;;;14.35;77.83;101669.03;5048607;28;9095;-68
2022/10/02 08:59:41;;;;;;;;;1.00;1.00;;;;;14.38;77.55;101679.47;5040541;28;9049;-66
2022/10/02 09:02:26;;;;;;;;;0.33;0.33;;;;;14.41;77.77;101680.94;5051073;28;9151;-67
2022/10/02 09:05:17;;;;;;;;;0.00;0.00;;;;;14.42;77.63;101680.75;5051613;28;8984;-66
2022/10/02 09:07:57;;;;;;;;;1.00;0.00;;;;;14.42;77.35;101688.00;5039907;28;9775;-67
2022/10/02 09:10:44;;;;;;;;;0.00;0.00;;;;;14.42;77.25;101683.44;5040445;28;8991;-65
2022/10/02 09:13:21;;;;;;;;;1.67;1.00;;;;;14.44;77.22;101691.38;5043384;28;9058;-66
2022/10/02 09:16:09;;;;;;;;;1.33;1.33;;;;;14.39;77.04;101691.13;5041926;28;8907;-68
2022/10/02 09:18:48;;;;;;;;;1.00;1.00;;;;;14.32;76.91;101696.50;5042117;28;9162;-67
2022/10/02 09:21:21;;;;;;;;;0.00;0.00;;;;;14.33;76.81;101698.16;5039974;28;9095;-65
2022/10/02 09:24:29;;;;;;;;;1.33;1.33;;;;;14.37;76.74;101701.31;5042200;28;8971;-66
2022/10/02 09:27:41;;;;;;;;;1.00;1.00;;;;;14.40;76.68;101700.94;5037318;28;9002;-66
2022/10/02 09:30:28;;;;;;;;;1.00;1.00;;;;;14.43;76.39;101701.38;5030021;28;9053;-67
2022/10/02 09:33:32;;;;;;;;;1.33;0.67;;;;;14.49;75.80;101707.88;5044291;28;9083;-67
2022/10/02 09:36:23;;;;;;;;;1.00;1.00;;;;;14.57;75.42;101705.84;5041183;28;9762;-68
2022/10/02 09:39:19;;;;;;;;;2.00;1.00;;;;;14.58;74.97;101706.69;5040127;28;9099;-66
2022/10/02 09:41:55;;;;;;;;;2.67;2.33;;;;;14.56;74.69;101714.19;5042506;28;9687;-68
2022/10/02 09:44:44;;;;;;;;;2.00;2.00;;;;;14.59;75.27;101711.09;5045274;28;8918;-68
2022/10/02 09:48:08;;;;;;;;;2.00;0.67;;;;;14.58;75.06;101721.09;5044665;28;8860;-66
2022/10/02 09:51:00;;;;;;;;;1.00;1.00;;;;;14.57;75.25;101727.53;5043356;28;8938;-66
2022/10/02 09:53:54;;;;;;;;;2.00;1.67;;;;;14.52;74.62;101724.59;5043415;28;8922;-67
2022/10/02 09:56:59;;;;;;;;;3.33;2.00;;;;;14.52;74.06;101731.88;5034638;28;9017;-67
2022/10/02 09:59:47;;;;;;;;;2.00;0.67;;;;;14.54;74.03;101736.06;5044258;28;9043;-65
2022/10/02 10:02:33;;;;;;;;;1.75;1.75;;;;;14.56;73.67;101734.00;5041708;28;9124;-65
2022/10/02 10:05:38;;;;;;;;;1.00;1.00;;;;;14.59;73.93;101727.34;5046729;28;8841;-68
2022/10/02 10:08:36;;;;;;;;;0.00;0.00;;;;;14.63;73.62;101725.09;5043092;28;8934;-67
2022/10/02 10:11:28;;;;;;;;;2.67;2.00;;;;;14.67;73.68;101732.59;5060874;28;8908;-65
2022/10/02 10:14:04;;;;;;;;;1.67;1.67;;;;;14.68;73.34;101739.69;5053155;28;8910;-68
2022/10/02 10:16:50;;;;;;;;;3.00;1.33;;;;;14.67;72.86;101751.56;5042087;28;9012;-66
2022/10/02 10:19:35;;;;;;;;;2.50;2.00;;;;;14.68;73.01;101761.38;5040795;28;8925;-68
2022/10/02 10:22:41;;;;;;;;;1.00;1.00;;;;;14.70;72.70;101755.75;5044489;28;8831;-68
2022/10/02 10:25:49;;;;;;;;;1.00;1.00;;;;;14.75;71.83;101758.72;5040599;28;8820;-68
2022/10/02 10:28:18;;;;;;;;;1.00;1.00;;;;;14.82;71.86;101765.81;5047135;28;8827;-65
2022/10/02 10:30:48;;;;;;;;;2.75;1.00;;;;;14.87;72.06;101765.25;5045992;28;8928;-66
2022/10/02 10:33:32;;;;;;;;;1.25;1.00;;;;;14.91;72.25;101773.78;5044291;28;8869;-64
2022/10/02 10:39:51;;;;;;;;;1.00;1.00;;;;;14.95;70.71;101775.06;5044492;28;8945;-65
2022/10/02 10:42:43;;;;;;;;;4.33;2.00;;;;;14.94;70.76;101779.66;5039787;28;8938;-66
2022/10/02 10:45:41;;;;;;;;;4.00;2.00;;;;;14.96;70.77;101787.59;5042580;28;8896;-65
2022/10/02 10:48:35;;;;;;;;;1.25;1.25;;;;;14.97;70.33;101776.56;5043060;28;8968;-68
2022/10/02 10:51:22;;;;;;;;;2.00;2.00;;;;;15.00;70.17;101789.72;5033613;28;8902;-66
2022/10/02 10:54:28;;;;;;;;;1.25;1.25;;;;;15.05;69.73;101791.81;5045181;28;9627;-64
2022/10/02 10:57:03;;;;;;;;;1.00;0.00;;;;;15.09;69.62;101793.94;5041542;28;8861;-66
2022/10/02 10:59:56;;;;;;;;;0.00;0.00;;;;;15.16;69.30;101799.41;5040876;28;9656;-68
2022/10/02 11:03:05;;;;;;;;;2.00;1.00;;;;;15.13;68.32;101798.94;5042807;28;8867;-62
2022/10/02 11:06:02;;;;;;;;;1.67;1.67;;;;;15.12;67.50;101806.25;5040342;28;8992;-67
2022/10/02 11:08:54;;;;;;;;;6.00;2.25;;;;;15.14;68.16;101811.47;5057502;28;8934;-68
2022/10/02 11:11:41;;;;;;;;;1.50;1.00;;;;;15.14;68.10;101811.47;5044273;28;8869;-68
2022/10/02 11:14:27;;;;;;;;;1.00;1.00;;;;;15.11;67.76;101812.72;5045321;28;8815;-67
2022/10/02 11:17:09;;;;;;;;;3.00;2.00;;;;;15.15;67.27;101811.28;5044420;28;8870;-67
2022/10/02 11:20:19;;;;;;;;;1.50;1.00;;;;;15.17;67.31;101828.19;5043866;28;8827;-67
2022/10/02 11:22:51;;;;;;;;;1.00;1.00;;;;;15.24;66.78;101820.94;5041463;28;9546;-66
2022/10/02 11:25:54;;;;;;;;;1.50;1.50;;;;;15.23;65.52;101831.97;5046585;28;9578;-67
2022/10/02 11:28:38;;;;;;;;;1.00;0.00;;;;;15.24;65.70;101830.94;5039990;28;8834;-66
2022/10/02 11:31:36;;;;;;;;;1.75;1.00;;;;;15.27;65.81;101834.09;5042166;28;8819;-66
2022/10/02 11:34:32;;;;;;;;;2.00;0.00;;;;;15.32;65.59;101842.47;5046087;28;8815;-66
2022/10/02 11:37:06;;;;;;;;;3.00;1.75;;;;;15.41;65.87;101840.41;5047237;28;8820;-67
2022/10/02 11:39:51;;;;;;;;;1.00;1.00;;;;;15.50;65.71;101836.47;5056161;28;8826;-66
2022/10/02 11:42:41;;;;;;;;;1.00;1.00;;;;;15.52;65.25;101844.44;5042835;28;8900;-66
2022/10/02 11:45:30;;;;;;;;;2.50;1.25;;;;;15.51;64.18;101837.31;5045479;28;8931;-67
2022/10/02 11:48:19;;;;;;;;;1.75;1.00;;;;;15.52;63.72;101841.72;5043367;28;8956;-68
2022/10/02 11:51:09;;;;;;;;;4.50;1.00;;;;;15.59;63.49;101845.28;5044835;28;9517;-68
2022/10/02 11:54:02;;;;;;;;;4.50;1.00;;;;;15.58;62.25;101840.88;5047303;28;8925;-67
2022/10/02 11:56:29;;;;;;;;;2.75;0.75;;;;;15.70;61.88;101833.88;5046630;28;8862;-68
2022/10/02 11:59:37;;;;;;;;;2.75;1.00;;;;;15.74;62.25;101845.16;5046201;28;8822;-66
2022/10/02 12:02:18;;;;;;;;;1.00;1.00;;;;;15.81;61.82;101848.72;5042039;28;8867;-67
2022/10/02 12:05:15;;;;;;;;;1.00;1.00;;;;;15.93;62.49;101849.81;5048251;28;8828;-68
2022/10/02 12:08:02;;;;;;;;;3.00;3.00;;;;;16.08;61.47;101852.34;5042513;28;9549;-67
2022/10/02 12:10:41;;;;;;;;;2.25;0.25;;;;;16.10;61.94;101844.00;5042830;28;8839;-68
2022/10/02 12:13:50;;;;;;;;;1.00;1.00;;;;;16.06;61.93;101859.88;5045332;28;8843;-67
2022/10/02 12:16:29;;;;;;;;;1.00;1.00;;;;;15.96;62.82;101851.25;5043963;28;8823;-67
2022/10/02 12:19:24;;;;;;;;;1.50;1.00;;;;;15.89;63.15;101848.56;5049045;28;8848;-68
2022/10/02 12:28:22;;;;;;;;;0.00;0.00;;;;;16.02;63.48;101864.88;5054971;28;8862;-67
2022/10/02 12:31:00;;;;;;;;;1.25;1.00;;;;;16.04;62.60;101876.38;5046332;28;9558;-66
2022/10/02 12:33:39;;;;;;;;;2.00;1.00;;;;;16.03;61.04;101868.41;5053938;28;8828;-67
2022/10/02 12:36:32;;;;;;;;;2.00;1.00;;;;;16.06;60.98;101868.00;5056777;28;8828;-68
2022/10/02 12:39:11;;;;;;;;;2.00;0.75;;;;;16.02;60.89;101875.72;5064667;28;8835;-68
2022/10/02 12:41:56;;;;;;;;;1.50;1.50;;;;;15.97;60.83;101878.22;5049845;28;8835;-67
2022/10/02 12:44:50;;;;;;;;;1.50;0.00;;;;;15.98;60.59;101885.34;5043721;28;9001;-67
2022/10/02 12:47:39;;;;;;;;;1.00;1.00;;;;;15.92;60.99;101891.59;5042623;28;8867;-68
2022/10/02 12:50:20;;;;;;;;;2.25;1.00;;;;;15.89;60.86;101900.13;5044450;28;8805;-66
2022/10/02 12:53:05;;;;;;;;;2.50;2.50;;;;;15.86;60.32;101908.69;5052006;28;9565;-66
2022/10/02 12:56:07;;;;;;;;;0.00;0.00;;;;;15.79;61.18;101910.53;5046967;28;8840;-67
2022/10/02 12:59:07;;;;;;;;;2.00;0.00;;;;;15.78;60.75;101906.97;5049672;28;8827;-66
2022/10/02 13:01:55;;;;;;;;;0.00;0.00;;;;;15.79;60.64;101910.53;5044146;28;8819;-67